createdAt,value
2022-11-06T00:01:43.894Z,14.50
2022-11-06T00:04:10.788Z,14.43
2022-11-06T00:06:49.515Z,12.30
2022-11-06T00:09:19.729Z,15.83
2022-11-06T00:11:48.236Z,13.03
2022-11-06T00:14:15.513Z,12.50
2022-11-06T00:16:43.147Z,14.50
2022-11-06T00:19:10.891Z,16.90
2022-11-06T00:21:38.158Z,11.90
2022-11-06T00:24:07.689Z,11.10
2022-11-06T00:26:35.407Z,11.87
2022-11-06T00:29:03.832Z,12.40
2022-11-06T00:31:33.466Z,11.17
2022-11-06T00:34:01.286Z,13.97
2022-11-06T00:36:32.727Z,12.50
2022-11-06T00:39:00.267Z,11.40
2022-11-06T00:41:31.224Z,11.50
2022-11-06T00:44:00.504Z,11.97
2022-11-06T00:46:27.847Z,14.80
2022-11-06T00:48:55.120Z,13.83
2022-11-06T00:51:27.674Z,13.90
2022-11-06T00:54:00.204Z,11.80
2022-11-06T00:56:27.969Z,11.33
2022-11-06T00:58:55.419Z,13.83
2022-11-06T01:01:25.357Z,10.60
2022-11-06T01:03:55.965Z,9.53
2022-11-06T01:06:30.591Z,11.03
2022-11-06T01:08:58.772Z,11.53
2022-11-06T01:11:46.480Z,8.63
2022-11-06T01:14:20.182Z,10.07
2022-11-06T01:16:47.676Z,10.87
2022-11-06T01:19:16.060Z,11.13
2022-11-06T01:21:45.457Z,11.00
2022-11-06T01:24:15.139Z,10.97
2022-11-06T01:26:58.461Z,9.80
2022-11-06T01:29:29.104Z,10.23
2022-11-06T01:31:55.944Z,10.17
2022-11-06T01:34:22.793Z,9.10
2022-11-06T01:36:49.737Z,9.37
2022-11-06T01:39:16.765Z,10.13
2022-11-06T01:41:49.991Z,7.90
2022-11-06T01:44:40.930Z,8.10
2022-11-06T01:47:26.349Z,10.47
2022-11-06T01:50:00.391Z,8.30
2022-11-06T01:52:29.231Z,8.13
2022-11-06T01:55:05.562Z,7.67
2022-11-06T01:57:32.434Z,8.70
2022-11-06T01:59:59.659Z,8.93
2022-11-06T02:02:26.714Z,11.03
2022-11-06T02:04:53.704Z,12.93
2022-11-06T02:07:21.147Z,12.00
2022-11-06T02:09:48.418Z,13.70
2022-11-06T02:12:31.443Z,15.30
2022-11-06T02:15:13.446Z,11.37
2022-11-06T02:18:06.805Z,12.93
2022-11-06T02:20:54.689Z,12.17
2022-11-06T02:23:50.876Z,10.87
2022-11-06T02:26:24.571Z,13.43
2022-11-06T02:29:01.302Z,14.13
2022-11-06T02:31:35.251Z,11.97
2022-11-06T02:34:08.745Z,13.03
2022-11-06T02:36:40.793Z,12.17
2022-11-06T02:39:13.131Z,11.17
2022-11-06T02:41:44.676Z,10.97
2022-11-06T02:44:17.486Z,9.50
2022-11-06T02:46:50.950Z,12.33
2022-11-06T02:49:20.286Z,12.83
2022-11-06T02:51:52.744Z,11.53
2022-11-06T02:54:22.671Z,13.43
2022-11-06T02:56:52.704Z,10.77
2022-11-06T02:59:25.566Z,11.47
2022-11-06T03:02:00.488Z,14.57
2022-11-06T03:04:45.523Z,12.77
2022-11-06T03:07:21.074Z,15.93
2022-11-06T03:09:49.196Z,13.80
2022-11-06T03:12:22.923Z,10.63
2022-11-06T03:15:06.605Z,15.50
2022-11-06T03:17:43.241Z,14.03
2022-11-06T03:20:18.482Z,16.47
2022-11-06T03:22:54.462Z,12.83
2022-11-06T03:25:27.095Z,19.43
2022-11-06T03:28:12.101Z,16.23
2022-11-06T03:30:44.922Z,15.33
2022-11-06T03:33:24.903Z,15.57
2022-11-06T03:35:56.492Z,16.70
2022-11-06T03:38:32.329Z,13.40
2022-11-06T03:41:10.435Z,12.57
2022-11-06T03:43:41.010Z,12.37
2022-11-06T03:46:14.650Z,11.70
2022-11-06T03:48:49.400Z,11.47
2022-11-06T03:51:29.396Z,11.17
2022-11-06T03:54:11.516Z,12.67
2022-11-06T03:56:46.313Z,11.73
2022-11-06T03:59:15.285Z,11.37
2022-11-06T04:01:45.547Z,11.50
2022-11-06T04:04:19.352Z,13.03
2022-11-06T04:06:57.702Z,12.93
2022-11-06T04:09:48.069Z,10.93
2022-11-06T04:12:39.173Z,11.53
2022-11-06T04:15:09.515Z,9.27
2022-11-06T04:17:37.292Z,11.33
2022-11-06T04:20:09.698Z,9.63
2022-11-06T04:23:21.447Z,7.97
2022-11-06T04:26:28.727Z,9.23
2022-11-06T04:29:09.449Z,7.80
2022-11-06T04:31:51.914Z,8.70
2022-11-06T04:34:47.966Z,9.77
2022-11-06T04:37:23.271Z,8.93
2022-11-06T04:40:10.622Z,9.47
2022-11-06T04:42:47.592Z,7.27
2022-11-06T04:45:20.471Z,7.40
2022-11-06T04:47:48.139Z,8.27
2022-11-06T04:50:17.469Z,8.23
2022-11-06T04:52:45.341Z,7.50
2022-11-06T04:55:12.311Z,8.13
2022-11-06T04:57:39.208Z,7.00
2022-11-06T05:00:07.078Z,8.30
2022-11-06T05:02:33.963Z,8.80
2022-11-06T05:05:00.811Z,9.23
2022-11-06T05:07:27.806Z,11.03
2022-11-06T05:09:54.640Z,10.47
2022-11-06T05:12:21.990Z,11.60
2022-11-06T05:14:48.866Z,9.13
2022-11-06T05:17:15.725Z,9.70
2022-11-06T05:19:42.613Z,10.03
2022-11-06T05:22:28.655Z,7.40
2022-11-06T05:24:55.537Z,9.43
2022-11-06T05:27:22.414Z,8.63
2022-11-06T05:29:49.270Z,10.43
2022-11-06T05:32:16.155Z,9.50
2022-11-06T05:34:42.991Z,10.27
2022-11-06T05:37:09.830Z,9.53
2022-11-06T05:39:41.416Z,7.50
2022-11-06T05:42:08.923Z,8.47
2022-11-06T05:44:36.029Z,9.83
2022-11-06T05:47:02.944Z,9.53
2022-11-06T05:49:29.802Z,8.47
2022-11-06T05:51:56.688Z,8.17
2022-11-06T05:54:23.545Z,9.40
2022-11-06T05:56:50.350Z,9.67
2022-11-06T05:59:17.227Z,9.23
2022-11-06T06:01:44.137Z,8.23
2022-11-06T06:04:11.136Z,9.53
2022-11-06T06:06:39.140Z,8.60
2022-11-06T06:09:06.019Z,9.93
2022-11-06T06:11:32.901Z,8.10
2022-11-06T06:14:00.937Z,7.80
2022-11-06T06:16:28.378Z,8.23
2022-11-06T06:18:55.202Z,8.57
2022-11-06T06:21:22.049Z,7.20
2022-11-06T06:23:48.854Z,8.00
2022-11-06T06:26:15.725Z,9.50
2022-11-06T06:28:42.648Z,9.97
2022-11-06T06:31:10.773Z,8.37
2022-11-06T06:33:37.652Z,10.77
2022-11-06T06:36:05.494Z,8.57
2022-11-06T06:38:32.315Z,8.60
2022-11-06T06:41:07.295Z,9.77
2022-11-06T06:43:34.764Z,9.57
2022-11-06T06:46:03.797Z,10.53
2022-11-06T06:48:30.958Z,9.20
2022-11-06T06:51:03.155Z,9.83
2022-11-06T06:53:29.961Z,9.93
2022-11-06T06:56:01.015Z,8.67
2022-11-06T06:58:31.643Z,10.27
2022-11-06T07:01:05.252Z,10.43
2022-11-06T07:03:32.898Z,12.17
2022-11-06T07:05:59.885Z,9.37
2022-11-06T07:08:28.042Z,9.43
2022-11-06T07:11:06.586Z,11.10
2022-11-06T07:13:36.136Z,10.47
2022-11-06T07:16:08.964Z,8.00
2022-11-06T07:18:36.477Z,11.07
2022-11-06T07:21:08.209Z,9.10
2022-11-06T07:23:36.111Z,9.63
2022-11-06T07:26:05.025Z,10.03
2022-11-06T07:28:32.614Z,10.23
2022-11-06T07:31:00.865Z,10.47
2022-11-06T07:33:27.786Z,10.70
2022-11-06T07:35:54.646Z,11.10
2022-11-06T07:38:21.445Z,14.07
2022-11-06T07:40:48.337Z,12.33
2022-11-06T07:43:15.438Z,11.13
2022-11-06T07:45:42.330Z,11.93
2022-11-06T07:48:09.256Z,11.43
2022-11-06T07:50:36.113Z,12.63
2022-11-06T07:53:04.004Z,10.67
2022-11-06T07:55:30.814Z,10.93
2022-11-06T07:57:59.568Z,9.60
2022-11-06T08:00:26.566Z,9.43
2022-11-06T08:02:53.868Z,9.33
2022-11-06T08:05:21.112Z,7.27
2022-11-06T08:07:47.983Z,9.10
2022-11-06T08:10:14.924Z,8.43
2022-11-06T08:12:41.730Z,8.43
2022-11-06T08:15:08.846Z,9.93
2022-11-06T08:17:35.648Z,9.43
2022-11-06T08:20:02.519Z,9.93
2022-11-06T08:22:29.388Z,9.33
2022-11-06T08:24:56.214Z,9.90
2022-11-06T08:27:23.091Z,11.57
2022-11-06T08:29:49.996Z,9.37
2022-11-06T08:32:16.827Z,9.40
2022-11-06T08:34:43.742Z,9.77
2022-11-06T08:37:11.516Z,8.83
2022-11-06T08:39:38.417Z,9.37
2022-11-06T08:42:05.886Z,9.33
2022-11-06T08:44:32.873Z,9.73
2022-11-06T08:46:59.787Z,9.27
2022-11-06T08:49:26.634Z,9.70
2022-11-06T08:51:54.618Z,10.20
2022-11-06T08:54:21.619Z,10.70
2022-11-06T08:56:49.066Z,9.47
2022-11-06T08:59:16.106Z,11.30
2022-11-06T09:01:43.101Z,9.37
2022-11-06T09:04:10.029Z,11.37
2022-11-06T09:06:37.124Z,10.90
2022-11-06T09:09:04.201Z,10.80
2022-11-06T09:11:31.054Z,11.60
2022-11-06T09:13:58.550Z,10.70
2022-11-06T09:16:26.380Z,10.23
2022-11-06T09:18:56.902Z,11.07
2022-11-06T09:21:24.172Z,10.33
2022-11-06T09:23:51.111Z,9.07
2022-11-06T09:26:18.064Z,10.53
2022-11-06T09:28:45.982Z,8.53
2022-11-06T09:31:12.900Z,8.47
2022-11-06T09:33:39.829Z,9.43
2022-11-06T09:36:07.358Z,10.77
2022-11-06T09:38:34.243Z,10.60
2022-11-06T09:41:02.989Z,9.80
2022-11-06T09:44:12.163Z,10.00
2022-11-06T09:46:46.716Z,10.53
2022-11-06T09:49:33.721Z,9.33
2022-11-06T09:52:33.743Z,11.03
2022-11-06T09:55:21.278Z,11.00
2022-11-06T09:58:05.246Z,10.50
2022-11-06T10:00:33.301Z,11.50
2022-11-06T10:03:03.538Z,10.87
2022-11-06T10:05:33.716Z,10.70
2022-11-06T10:08:22.345Z,10.47
2022-11-06T10:11:03.668Z,10.47
2022-11-06T10:13:49.293Z,10.13
2022-11-06T10:16:34.602Z,9.83
2022-11-06T10:19:10.776Z,9.93
2022-11-06T10:21:54.211Z,10.90
2022-11-06T10:24:23.985Z,10.47
2022-11-06T10:26:56.861Z,9.63
2022-11-06T10:29:48.907Z,11.00
2022-11-06T10:32:28.138Z,9.40
2022-11-06T10:35:02.164Z,10.60
2022-11-06T10:37:57.641Z,10.57
2022-11-06T10:40:28.726Z,9.90
2022-11-06T10:43:13.740Z,10.00
2022-11-06T10:45:45.133Z,10.90
2022-11-06T10:48:27.404Z,9.87
2022-11-06T10:51:18.198Z,10.60
2022-11-06T10:54:10.999Z,9.83
2022-11-06T10:56:58.764Z,10.77
2022-11-06T10:59:25.680Z,10.13
2022-11-06T11:01:52.637Z,10.03
2022-11-06T11:04:19.589Z,11.10
2022-11-06T11:06:46.418Z,9.47
2022-11-06T11:09:40.612Z,11.70
2022-11-06T11:12:24.207Z,10.27
2022-11-06T11:15:10.676Z,10.77
2022-11-06T11:17:38.045Z,9.63
2022-11-06T11:20:32.418Z,9.97
2022-11-06T11:23:16.263Z,9.97
2022-11-06T11:25:45.751Z,9.27
2022-11-06T11:28:27.049Z,9.93
2022-11-06T11:31:03.213Z,8.47
2022-11-06T11:33:30.237Z,9.70
2022-11-06T11:35:57.359Z,9.17
2022-11-06T11:38:26.127Z,8.57
2022-11-06T11:41:08.450Z,9.70
2022-11-06T11:43:35.455Z,8.73
2022-11-06T11:46:08.382Z,9.40
2022-11-06T11:48:53.191Z,9.70
2022-11-06T11:51:22.777Z,10.03
2022-11-06T11:53:50.038Z,11.03
2022-11-06T11:56:42.536Z,9.90
2022-11-06T11:59:27.513Z,10.83
2022-11-06T12:02:04.993Z,10.17
2022-11-06T12:04:38.799Z,11.17
2022-11-06T12:07:12.388Z,12.23
2022-11-06T12:09:44.080Z,11.97
2022-11-06T12:12:26.684Z,10.07
2022-11-06T12:15:21.336Z,13.07
2022-11-06T12:17:56.773Z,13.67
2022-11-06T12:20:41.655Z,13.73
2022-11-06T12:23:41.937Z,11.40
2022-11-06T12:26:22.423Z,12.00
2022-11-06T12:28:51.537Z,12.30
2022-11-06T12:32:00.838Z,10.57
2022-11-06T12:34:45.525Z,10.93
2022-11-06T12:37:50.866Z,12.90
2022-11-06T12:40:25.867Z,10.07
2022-11-06T12:43:14.643Z,12.50
2022-11-06T12:46:06.040Z,12.10
2022-11-06T12:49:18.156Z,12.07
2022-11-06T12:52:03.837Z,10.73
2022-11-06T12:54:52.538Z,12.60
2022-11-06T12:57:39.698Z,11.33
2022-11-06T13:00:19.024Z,12.93
2022-11-06T13:03:03.746Z,11.80
2022-11-06T13:05:35.811Z,12.93
2022-11-06T13:08:10.080Z,13.70
2022-11-06T13:10:57.485Z,13.50
2022-11-06T13:13:30.012Z,12.53
2022-11-06T13:16:04.756Z,12.60
2022-11-06T13:18:37.339Z,15.40
2022-11-06T13:21:21.674Z,13.87
2022-11-06T13:23:51.279Z,13.37
2022-11-06T13:26:28.578Z,14.37
2022-11-06T13:29:02.917Z,13.63
2022-11-06T13:31:40.627Z,14.10
2022-11-06T13:34:11.264Z,13.80
2022-11-06T13:36:38.659Z,13.57
2022-11-06T13:39:28.339Z,15.13
2022-11-06T13:41:56.570Z,14.13
2022-11-06T13:44:24.479Z,15.17
2022-11-06T13:47:14.744Z,15.23
2022-11-06T13:50:04.680Z,15.20
2022-11-06T13:52:52.038Z,16.60
2022-11-06T13:55:36.014Z,14.57
2022-11-06T13:58:27.045Z,14.63
2022-11-06T14:01:31.846Z,14.27
2022-11-06T14:04:29.631Z,14.47
2022-11-06T14:07:00.962Z,15.03
2022-11-06T14:09:32.663Z,16.43
2022-11-06T14:12:03.757Z,13.83
2022-11-06T14:14:32.903Z,13.03
2022-11-06T14:17:17.924Z,15.63
2022-11-06T14:19:51.213Z,15.37
2022-11-06T14:22:33.863Z,13.67
2022-11-06T14:25:02.316Z,14.73
2022-11-06T14:27:29.364Z,14.57
2022-11-06T14:30:05.430Z,15.20
2022-11-06T14:32:32.382Z,15.20
2022-11-06T14:35:34.303Z,14.80
2022-11-06T14:38:10.450Z,15.50
2022-11-06T14:40:38.648Z,13.67
2022-11-06T14:43:24.849Z,16.37
2022-11-06T14:46:04.591Z,15.57
2022-11-06T14:48:39.428Z,14.10
2022-11-06T14:51:10.156Z,14.10
2022-11-06T14:53:49.550Z,15.27
2022-11-06T14:56:29.541Z,15.63
2022-11-06T14:59:07.463Z,14.20
2022-11-06T15:01:37.857Z,13.67
2022-11-06T15:04:05.881Z,14.63
2022-11-06T15:06:32.691Z,14.97
2022-11-06T15:09:07.074Z,14.73
2022-11-06T15:11:34.832Z,13.23
2022-11-06T15:14:07.747Z,14.50
2022-11-06T15:16:38.983Z,15.57
2022-11-06T15:19:11.673Z,15.23
2022-11-06T15:21:50.178Z,15.87
2022-11-06T15:24:34.321Z,16.87
2022-11-06T15:27:16.173Z,16.10
2022-11-06T15:29:45.008Z,15.03
2022-11-06T15:32:19.588Z,15.37
2022-11-06T15:34:56.228Z,16.70
2022-11-06T15:37:38.945Z,15.50
2022-11-06T15:40:06.562Z,16.03
2022-11-06T15:42:37.257Z,14.97
2022-11-06T15:45:22.720Z,17.63
2022-11-06T15:48:01.621Z,16.80
2022-11-06T15:50:36.683Z,15.77
2022-11-06T15:53:16.104Z,15.77
2022-11-06T15:56:07.921Z,16.07
2022-11-06T15:58:37.551Z,16.83
2022-11-06T16:01:06.572Z,16.53
2022-11-06T16:03:54.969Z,15.87
2022-11-06T16:06:22.037Z,18.23
2022-11-06T16:08:50.841Z,15.57
2022-11-06T16:11:20.138Z,16.63
2022-11-06T16:13:47.766Z,16.67
2022-11-06T16:16:33.461Z,19.10
2022-11-06T16:19:01.528Z,16.90
2022-11-06T16:21:31.855Z,16.37
2022-11-06T16:24:12.687Z,15.33
2022-11-06T16:26:49.315Z,15.77
2022-11-06T16:29:20.641Z,15.70
2022-11-06T16:31:48.890Z,16.27
2022-11-06T16:34:35.519Z,15.33
2022-11-06T16:37:29.805Z,16.23
2022-11-06T16:40:00.185Z,14.80
2022-11-06T16:42:36.047Z,17.13
2022-11-06T16:45:15.052Z,15.87
2022-11-06T16:47:41.950Z,14.87
2022-11-06T16:50:47.413Z,16.37
2022-11-06T16:53:20.327Z,16.07
2022-11-06T16:56:21.877Z,15.27
2022-11-06T16:58:52.638Z,16.13
2022-11-06T17:01:21.027Z,18.10
2022-11-06T17:04:01.446Z,16.13
2022-11-06T17:06:34.931Z,15.30
2022-11-06T17:09:26.964Z,16.23
2022-11-06T17:11:55.475Z,15.63
2022-11-06T17:14:22.981Z,16.17
2022-11-06T17:16:53.902Z,16.57
2022-11-06T17:19:22.151Z,16.00
2022-11-06T17:21:50.183Z,15.60
2022-11-06T17:24:35.935Z,14.60
2022-11-06T17:27:03.941Z,15.37
2022-11-06T17:29:30.770Z,16.37
2022-11-06T17:31:57.652Z,15.80
2022-11-06T17:34:24.491Z,15.40
2022-11-06T17:36:51.405Z,13.67
2022-11-06T17:39:18.402Z,16.03
2022-11-06T17:41:45.224Z,16.47
2022-11-06T17:44:13.136Z,17.83
2022-11-06T17:46:45.882Z,19.17
2022-11-06T17:49:17.508Z,16.27
2022-11-06T17:51:58.501Z,16.47
2022-11-06T17:54:28.264Z,14.57
2022-11-06T17:56:56.786Z,13.63
2022-11-06T17:59:26.411Z,13.30
2022-11-06T18:01:54.847Z,11.17
2022-11-06T18:04:24.057Z,13.40
2022-11-06T18:06:52.574Z,13.67
2022-11-06T18:09:21.229Z,12.63
2022-11-06T18:11:52.628Z,12.17
2022-11-06T18:14:20.887Z,12.03
2022-11-06T18:16:48.794Z,12.07
2022-11-06T18:19:18.130Z,12.33
2022-11-06T18:21:45.041Z,10.60
2022-11-06T18:24:12.140Z,11.37
2022-11-06T18:26:39.362Z,11.97
2022-11-06T18:29:07.152Z,13.17
2022-11-06T18:31:34.754Z,13.10
2022-11-06T18:34:02.488Z,11.27
2022-11-06T18:36:29.364Z,11.30
2022-11-06T18:38:56.263Z,11.43
2022-11-06T18:41:23.335Z,9.83
2022-11-06T18:43:54.891Z,9.77
2022-11-06T18:46:21.769Z,10.97
2022-11-06T18:48:48.748Z,9.93
2022-11-06T18:51:32.704Z,10.60
2022-11-06T18:54:04.739Z,9.57
2022-11-06T18:56:33.697Z,9.57
2022-11-06T18:59:00.694Z,9.17
2022-11-06T19:01:28.683Z,8.43
2022-11-06T19:03:55.907Z,7.80
2022-11-06T19:06:22.893Z,9.33
2022-11-06T19:08:49.807Z,7.73
2022-11-06T19:11:18.368Z,9.53
2022-11-06T19:13:48.319Z,10.33
2022-11-06T19:16:19.343Z,8.37
2022-11-06T19:21:30.301Z,8.70
2022-11-06T19:24:03.931Z,9.53
2022-11-06T19:26:33.017Z,9.13
2022-11-06T19:29:00.666Z,8.30
2022-11-06T19:31:29.539Z,8.03
2022-11-06T19:34:00.740Z,8.07
2022-11-06T19:36:28.470Z,7.83
2022-11-06T19:38:57.945Z,9.27
2022-11-06T19:41:26.190Z,7.33
2022-11-06T19:43:53.235Z,7.07
2022-11-06T19:46:25.689Z,7.23
2022-11-06T19:48:55.285Z,6.97
2022-11-06T19:51:22.222Z,8.17
2022-11-06T19:53:53.124Z,7.90
2022-11-06T19:56:20.578Z,7.27
2022-11-06T19:58:48.617Z,8.10
2022-11-06T20:01:15.729Z,7.40
2022-11-06T20:03:43.250Z,7.27
2022-11-06T20:06:11.112Z,8.33
2022-11-06T20:08:38.932Z,7.47
2022-11-06T20:11:07.739Z,9.70
2022-11-06T20:13:36.661Z,9.43
2022-11-06T20:16:08.622Z,9.27
2022-11-06T20:18:36.336Z,8.90
2022-11-06T20:21:08.594Z,7.40
2022-11-06T20:23:35.775Z,6.20
2022-11-06T20:26:02.629Z,7.67
2022-11-06T20:28:29.483Z,6.87
2022-11-06T20:30:56.972Z,7.73
2022-11-06T20:33:24.246Z,6.70
2022-11-06T20:35:51.120Z,7.07
2022-11-06T20:38:17.990Z,7.20
2022-11-06T20:40:45.527Z,7.07
2022-11-06T20:43:12.889Z,6.43
2022-11-06T20:45:39.970Z,6.83
2022-11-06T20:48:09.169Z,7.73
2022-11-06T20:50:36.155Z,6.70
2022-11-06T20:53:03.325Z,7.70
2022-11-06T20:55:30.301Z,6.07
2022-11-06T20:57:57.166Z,7.07
2022-11-06T21:00:24.729Z,7.63
2022-11-06T21:02:52.004Z,6.80
2022-11-06T21:05:20.470Z,5.70
2022-11-06T21:07:47.336Z,4.97
2022-11-06T21:10:14.174Z,5.00
2022-11-06T21:12:41.053Z,5.47
2022-11-06T21:15:08.293Z,4.13
2022-11-06T21:17:35.328Z,7.67
2022-11-06T21:20:02.179Z,6.33
2022-11-06T21:22:29.134Z,6.13
2022-11-06T21:24:56.159Z,4.80
2022-11-06T21:27:23.088Z,5.20
2022-11-06T21:29:50.028Z,5.00
2022-11-06T21:32:16.870Z,5.10
2022-11-06T21:34:43.736Z,4.67
2022-11-06T21:37:10.624Z,4.87
2022-11-06T21:39:37.614Z,4.73
2022-11-06T21:42:05.312Z,4.73
2022-11-06T21:44:32.467Z,4.03
2022-11-06T21:46:59.404Z,4.63
2022-11-06T21:49:26.345Z,3.70
2022-11-06T21:51:54.217Z,3.10
2022-11-06T21:54:39.558Z,4.17
2022-11-06T21:57:06.393Z,3.60
2022-11-06T21:59:37.537Z,3.33
2022-11-06T22:02:07.454Z,4.70
2022-11-06T22:04:34.638Z,4.77
2022-11-06T22:07:01.529Z,4.33
2022-11-06T22:09:28.413Z,4.03
2022-11-06T22:11:55.256Z,4.23
2022-11-06T22:14:22.159Z,3.90
2022-11-06T22:16:49.025Z,4.13
2022-11-06T22:19:17.543Z,3.67
2022-11-06T22:21:44.489Z,4.57
2022-11-06T22:24:12.771Z,5.23
2022-11-06T22:26:39.884Z,5.07
2022-11-06T22:29:10.533Z,4.67
2022-11-06T22:31:37.420Z,4.23
2022-11-06T22:34:04.668Z,5.10
2022-11-06T22:36:31.977Z,5.17
2022-11-06T22:39:00.675Z,3.70
2022-11-06T22:41:27.664Z,4.47
2022-11-06T22:43:58.809Z,4.60
2022-11-06T22:46:26.956Z,4.30
2022-11-06T22:48:54.231Z,4.77
2022-11-06T22:51:23.784Z,4.70
2022-11-06T22:53:51.813Z,5.00
2022-11-06T22:56:20.883Z,4.33
2022-11-06T22:58:47.808Z,4.00
2022-11-06T23:01:14.804Z,4.20
2022-11-06T23:03:41.739Z,3.90
2022-11-06T23:06:09.911Z,4.33
2022-11-06T23:08:44.175Z,5.20
2022-11-06T23:11:14.430Z,5.00
2022-11-06T23:13:41.393Z,5.13
2022-11-06T23:16:16.428Z,4.37
2022-11-06T23:18:43.938Z,4.93
2022-11-06T23:21:12.433Z,4.03
2022-11-06T23:23:39.554Z,4.33
2022-11-06T23:26:18.929Z,4.13
2022-11-06T23:28:46.472Z,3.70
2022-11-06T23:31:15.187Z,4.00
2022-11-06T23:33:42.877Z,4.07
2022-11-06T23:36:12.351Z,4.97
2022-11-06T23:38:39.676Z,4.87
2022-11-06T23:41:30.411Z,5.87
2022-11-06T23:43:57.903Z,4.07
2022-11-06T23:46:32.788Z,4.53
2022-11-06T23:49:00.216Z,4.10
2022-11-06T23:51:27.923Z,4.77
2022-11-06T23:53:54.903Z,3.90
2022-11-06T23:56:21.859Z,4.37
2022-11-06T23:58:48.747Z,4.20
